sensor_id;sensor_type;location;lat;lon;timestamp;noise_LAeq;noise_LA_min;noise_LA_max;noise_LA01;noise_LA95
53702;Laerm;39594;52.194;9.886;2023-05-10T00:01:49;38.94;34.31;41.89;;
53702;Laerm;39594;52.194;9.886;2023-05-10T00:04:15;38.98;34.69;41.89;;
53702;Laerm;39594;52.194;9.886;2023-05-10T00:06:40;39.42;34.31;41.82;;
53702;Laerm;39594;52.194;9.886;2023-05-10T00:09:05;40.15;35.36;43.29;;
53702;Laerm;39594;52.194;9.886;2023-05-10T00:11:31;39.77;33.44;42.53;;
53702;Laerm;39594;52.194;9.886;2023-05-10T00:13:56;39.85;33.90;42.98;;
53702;Laerm;39594;52.194;9.886;2023-05-10T00:16:21;40.14;36.45;42.98;;
53702;Laerm;39594;52.194;9.886;2023-05-10T00:18:46;53.28;5.00;86.08;;
53702;Laerm;39594;52.194;9.886;2023-05-10T00:21:12;40.19;5.00;56.68;;
53702;Laerm;39594;52.194;9.886;2023-05-10T00:23:37;50.59;5.00;86.28;;
53702;Laerm;39594;52.194;9.886;2023-05-10T00:26:02;62.52;35.66;81.27;;
53702;Laerm;39594;52.194;9.886;2023-05-10T00:28:28;58.37;5.00;91.79;;
53702;Laerm;39594;52.194;9.886;2023-05-10T00:30:53;74.32;5.00;105.16;;
53702;Laerm;39594;52.194;9.886;2023-05-10T00:33:19;69.16;5.00;105.25;;
53702;Laerm;39594;52.194;9.886;2023-05-10T00:35:44;50.06;5.00;83.72;;
53702;Laerm;39594;52.194;9.886;2023-05-10T00:38:09;85.66;5.00;110.85;;
53702;Laerm;39594;52.194;9.886;2023-05-10T00:40:35;50.68;5.00;85.03;;
53702;Laerm;39594;52.194;9.886;2023-05-10T00:43:00;56.28;5.00;86.21;;
53702;Laerm;39594;52.194;9.886;2023-05-10T00:45:26;89.54;5.00;111.99;;
53702;Laerm;39594;52.194;9.886;2023-05-10T00:47:52;39.35;35.66;41.96;;
53702;Laerm;39594;52.194;9.886;2023-05-10T00:50:20;58.96;5.00;76.86;;
53702;Laerm;39594;52.194;9.886;2023-05-10T00:52:45;87.10;5.00;113.18;;
53702;Laerm;39594;52.194;9.886;2023-05-10T00:55:10;39.70;5.00;53.95;;
53702;Laerm;39594;52.194;9.886;2023-05-10T00:57:37;85.26;5.00;112.89;;
53702;Laerm;39594;52.194;9.886;2023-05-10T01:00:02;72.41;5.00;103.11;;
53702;Laerm;39594;52.194;9.886;2023-05-10T01:02:27;39.16;34.31;42.29;;
53702;Laerm;39594;52.194;9.886;2023-05-10T01:04:53;39.57;34.31;42.16;;
53702;Laerm;39594;52.194;9.886;2023-05-10T01:07:19;39.54;33.90;46.87;;
53702;Laerm;39594;52.194;9.886;2023-05-10T01:09:44;52.29;34.31;70.44;;
53702;Laerm;39594;52.194;9.886;2023-05-10T01:12:10;39.21;33.44;41.82;;
53702;Laerm;39594;52.194;9.886;2023-05-10T01:14:35;54.23;35.66;70.49;;
53702;Laerm;39594;52.194;9.886;2023-05-10T01:17:01;39.41;5.00;55.37;;
53702;Laerm;39594;52.194;9.886;2023-05-10T01:19:27;89.61;5.00;110.89;;
53702;Laerm;39594;52.194;9.886;2023-05-10T01:21:56;91.13;5.00;111.95;;
53702;Laerm;39594;52.194;9.886;2023-05-10T01:24:38;79.08;32.35;106.82;;
53702;Laerm;39594;52.194;9.886;2023-05-10T01:29:47;95.31;5.00;113.23;;
53702;Laerm;39594;52.194;9.886;2023-05-10T01:32:29;97.63;5.00;112.93;;
53702;Laerm;39594;52.194;9.886;2023-05-10T01:35:00;96.04;5.00;112.77;;
53702;Laerm;39594;52.194;9.886;2023-05-10T01:37:30;87.08;5.00;111.93;;
53702;Laerm;39594;52.194;9.886;2023-05-10T01:42:33;98.53;5.00;112.86;;
53702;Laerm;39594;52.194;9.886;2023-05-10T01:47:37;90.69;5.00;113.14;;
53702;Laerm;39594;52.194;9.886;2023-05-10T01:50:06;98.51;5.00;112.87;;
53702;Laerm;39594;52.194;9.886;2023-05-10T01:52:38;97.58;5.00;111.71;;
53702;Laerm;39594;52.194;9.886;2023-05-10T01:55:06;97.82;5.00;112.89;;
53702;Laerm;39594;52.194;9.886;2023-05-10T01:57:34;100.75;5.00;113.02;;
53702;Laerm;39594;52.194;9.886;2023-05-10T02:00:00;100.53;5.00;116.60;;
53702;Laerm;39594;52.194;9.886;2023-05-10T02:02:26;101.16;5.00;116.28;;
53702;Laerm;39594;52.194;9.886;2023-05-10T02:04:52;100.70;5.00;116.51;;
53702;Laerm;39594;52.194;9.886;2023-05-10T02:07:18;96.89;5.00;115.53;;
53702;Laerm;39594;52.194;9.886;2023-05-10T02:09:44;18.82;5.00;54.84;;
53702;Laerm;39594;52.194;9.886;2023-05-10T02:12:12;76.13;5.00;105.74;;
53702;Laerm;39594;52.194;9.886;2023-05-10T02:14:38;98.64;5.00;112.86;;
53702;Laerm;39594;52.194;9.886;2023-05-10T02:17:04;5.00;5.00;5.00;;
53702;Laerm;39594;52.194;9.886;2023-05-10T02:19:30;5.00;5.00;5.00;;
53702;Laerm;39594;52.194;9.886;2023-05-10T02:21:57;5.00;5.00;5.00;;
53702;Laerm;39594;52.194;9.886;2023-05-10T02:24:26;5.00;5.00;5.00;;
53702;Laerm;39594;52.194;9.886;2023-05-10T02:26:53;5.00;5.00;5.00;;
53702;Laerm;39594;52.194;9.886;2023-05-10T02:29:20;5.00;5.00;5.00;;
53702;Laerm;39594;52.194;9.886;2023-05-10T02:31:48;5.00;5.00;5.00;;
53702;Laerm;39594;52.194;9.886;2023-05-10T02:34:15;5.00;5.00;5.00;;
53702;Laerm;39594;52.194;9.886;2023-05-10T02:36:41;5.00;5.00;5.00;;
53702;Laerm;39594;52.194;9.886;2023-05-10T02:39:06;5.00;5.00;5.00;;
53702;Laerm;39594;52.194;9.886;2023-05-10T02:41:35;5.00;5.00;5.00;;
53702;Laerm;39594;52.194;9.886;2023-05-10T02:44:01;5.00;5.00;5.00;;
53702;Laerm;39594;52.194;9.886;2023-05-10T02:46:27;5.00;5.00;5.00;;
53702;Laerm;39594;52.194;9.886;2023-05-10T02:48:53;5.00;5.00;5.00;;
53702;Laerm;39594;52.194;9.886;2023-05-10T02:51:18;5.00;5.00;5.00;;
53702;Laerm;39594;52.194;9.886;2023-05-10T02:53:46;5.00;5.00;5.00;;
53702;Laerm;39594;52.194;9.886;2023-05-10T02:56:13;5.00;5.00;5.00;;
53702;Laerm;39594;52.194;9.886;2023-05-10T02:58:40;5.00;5.00;5.00;;
53702;Laerm;39594;52.194;9.886;2023-05-10T03:01:05;5.00;5.00;5.00;;
53702;Laerm;39594;52.194;9.886;2023-05-10T03:03:32;5.00;5.00;5.00;;
53702;Laerm;39594;52.194;9.886;2023-05-10T03:05:57;5.00;5.00;5.00;;
53702;Laerm;39594;52.194;9.886;2023-05-10T03:08:23;5.00;5.00;5.00;;
53702;Laerm;39594;52.194;9.886;2023-05-10T03:11:09;5.00;5.00;5.00;;
53702;Laerm;39594;52.194;9.886;2023-05-10T03:13:40;5.00;5.00;5.00;;
53702;Laerm;39594;52.194;9.886;2023-05-10T03:16:10;5.00;5.00;5.00;;
53702;Laerm;39594;52.194;9.886;2023-05-10T03:21:06;5.00;5.00;5.00;;
53702;Laerm;39594;52.194;9.886;2023-05-10T03:23:34;5.00;5.00;5.00;;
53702;Laerm;39594;52.194;9.886;2023-05-10T03:26:00;5.00;5.00;5.00;;
53702;Laerm;39594;52.194;9.886;2023-05-10T03:28:26;5.00;5.00;5.00;;
53702;Laerm;39594;52.194;9.886;2023-05-10T03:30:52;5.00;5.00;5.00;;
53702;Laerm;39594;52.194;9.886;2023-05-10T03:33:18;5.00;5.00;5.00;;
53702;Laerm;39594;52.194;9.886;2023-05-10T03:35:43;5.00;5.00;5.00;;
53702;Laerm;39594;52.194;9.886;2023-05-10T03:38:10;5.00;5.00;5.00;;
53702;Laerm;39594;52.194;9.886;2023-05-10T03:40:35;5.00;5.00;5.00;;
53702;Laerm;39594;52.194;9.886;2023-05-10T03:43:01;5.00;5.00;5.00;;
53702;Laerm;39594;52.194;9.886;2023-05-10T03:45:26;5.00;5.00;5.00;;
53702;Laerm;39594;52.194;9.886;2023-05-10T03:47:51;5.00;5.00;5.00;;
53702;Laerm;39594;52.194;9.886;2023-05-10T03:50:16;5.00;5.00;5.00;;
53702;Laerm;39594;52.194;9.886;2023-05-10T03:52:43;5.00;5.00;5.00;;
53702;Laerm;39594;52.194;9.886;2023-05-10T03:55:08;5.00;5.00;5.00;;
53702;Laerm;39594;52.194;9.886;2023-05-10T03:57:33;5.00;5.00;5.00;;
53702;Laerm;39594;52.194;9.886;2023-05-10T03:59:59;5.00;5.00;5.00;;
53702;Laerm;39594;52.194;9.886;2023-05-10T04:02:24;5.00;5.00;5.00;;
53702;Laerm;39594;52.194;9.886;2023-05-10T04:04:50;5.00;5.00;5.00;;
53702;Laerm;39594;52.194;9.886;2023-05-10T04:07:15;5.00;5.00;5.00;;
53702;Laerm;39594;52.194;9.886;2023-05-10T04:09:41;5.00;5.00;5.00;;
53702;Laerm;39594;52.194;9.886;2023-05-10T04:12:06;5.00;5.00;5.00;;
53702;Laerm;39594;52.194;9.886;2023-05-10T04:14:31;5.00;5.00;5.00;;
53702;Laerm;39594;52.194;9.886;2023-05-10T04:16:56;5.00;5.00;5.00;;
53702;Laerm;39594;52.194;9.886;2023-05-10T04:19:22;5.00;5.00;5.00;;
53702;Laerm;39594;52.194;9.886;2023-05-10T04:21:47;5.00;5.00;5.00;;
53702;Laerm;39594;52.194;9.886;2023-05-10T04:24:12;5.00;5.00;5.00;;
53702;Laerm;39594;52.194;9.886;2023-05-10T04:26:38;5.00;5.00;5.00;;
53702;Laerm;39594;52.194;9.886;2023-05-10T04:29:03;5.00;5.00;5.00;;
53702;Laerm;39594;52.194;9.886;2023-05-10T04:31:28;5.00;5.00;5.00;;
53702;Laerm;39594;52.194;9.886;2023-05-10T04:33:56;5.00;5.00;5.00;;
53702;Laerm;39594;52.194;9.886;2023-05-10T04:36:21;5.00;5.00;5.00;;
53702;Laerm;39594;52.194;9.886;2023-05-10T04:38:46;5.00;5.00;5.00;;
53702;Laerm;39594;52.194;9.886;2023-05-10T04:41:12;5.00;5.00;5.00;;
53702;Laerm;39594;52.194;9.886;2023-05-10T04:43:37;5.00;5.00;5.00;;
53702;Laerm;39594;52.194;9.886;2023-05-10T04:46:03;5.00;5.00;5.00;;
53702;Laerm;39594;52.194;9.886;2023-05-10T04:48:28;5.00;5.00;5.00;;
53702;Laerm;39594;52.194;9.886;2023-05-10T04:50:53;5.00;5.00;5.00;;
53702;Laerm;39594;52.194;9.886;2023-05-10T04:53:18;5.00;5.00;5.00;;
53702;Laerm;39594;52.194;9.886;2023-05-10T04:55:43;5.00;5.00;5.00;;
53702;Laerm;39594;52.194;9.886;2023-05-10T04:58:11;5.00;5.00;5.00;;
53702;Laerm;39594;52.194;9.886;2023-05-10T05:00:36;5.00;5.00;5.00;;
53702;Laerm;39594;52.194;9.886;2023-05-10T05:03:01;5.00;5.00;5.00;;
53702;Laerm;39594;52.194;9.886;2023-05-10T05:05:27;5.00;5.00;5.00;;
53702;Laerm;39594;52.194;9.886;2023-05-10T05:07:52;5.00;5.00;5.00;;
53702;Laerm;39594;52.194;9.886;2023-05-10T05:10:17;5.00;5.00;5.00;;
53702;Laerm;39594;52.194;9.886;2023-05-10T05:12:42;5.00;5.00;5.00;;
53702;Laerm;39594;52.194;9.886;2023-05-10T05:15:07;5.00;5.00;5.00;;
53702;Laerm;39594;52.194;9.886;2023-05-10T05:17:34;5.00;5.00;5.00;;
53702;Laerm;39594;52.194;9.886;2023-05-10T05:19:59;5.00;5.00;5.00;;
53702;Laerm;39594;52.194;9.886;2023-05-10T05:22:25;5.00;5.00;5.00;;
53702;Laerm;39594;52.194;9.886;2023-05-10T05:24:53;5.00;5.00;5.00;;
53702;Laerm;39594;52.194;9.886;2023-05-10T05:27:18;5.00;5.00;5.00;;
53702;Laerm;39594;52.194;9.886;2023-05-10T05:29:45;5.00;5.00;5.00;;
53702;Laerm;39594;52.194;9.886;2023-05-10T05:32:11;5.00;5.00;5.00;;
53702;Laerm;39594;52.194;9.886;2023-05-10T05:34:36;5.00;5.00;5.00;;
53702;Laerm;39594;52.194;9.886;2023-05-10T05:37:01;5.00;5.00;5.00;;
53702;Laerm;39594;52.194;9.886;2023-05-10T05:39:27;5.00;5.00;5.00;;
53702;Laerm;39594;52.194;9.886;2023-05-10T05:41:52;5.00;5.00;5.00;;
53702;Laerm;39594;52.194;9.886;2023-05-10T05:44:17;5.00;5.00;5.00;;
53702;Laerm;39594;52.194;9.886;2023-05-10T05:46:42;5.00;5.00;5.00;;
53702;Laerm;39594;52.194;9.886;2023-05-10T05:49:07;5.00;5.00;5.00;;
53702;Laerm;39594;52.194;9.886;2023-05-10T05:51:33;5.00;5.00;5.00;;
53702;Laerm;39594;52.194;9.886;2023-05-10T05:53:59;5.00;5.00;5.00;;
53702;Laerm;39594;52.194;9.886;2023-05-10T05:56:24;5.00;5.00;5.00;;
53702;Laerm;39594;52.194;9.886;2023-05-10T05:58:50;5.00;5.00;5.00;;
53702;Laerm;39594;52.194;9.886;2023-05-10T06:01:15;5.00;5.00;5.00;;
53702;Laerm;39594;52.194;9.886;2023-05-10T06:03:41;5.00;5.00;5.00;;
53702;Laerm;39594;52.194;9.886;2023-05-10T06:06:06;5.00;5.00;5.00;;
53702;Laerm;39594;52.194;9.886;2023-05-10T06:08:31;5.00;5.00;5.00;;
53702;Laerm;39594;52.194;9.886;2023-05-10T06:10:56;5.00;5.00;5.00;;
53702;Laerm;39594;52.194;9.886;2023-05-10T06:13:22;5.00;5.00;5.00;;
53702;Laerm;39594;52.194;9.886;2023-05-10T06:15:47;5.00;5.00;5.00;;
53702;Laerm;39594;52.194;9.886;2023-05-10T06:18:12;5.00;5.00;5.00;;
53702;Laerm;39594;52.194;9.886;2023-05-10T06:20:37;5.00;5.00;5.00;;
53702;Laerm;39594;52.194;9.886;2023-05-10T06:23:02;5.00;5.00;5.00;;
53702;Laerm;39594;52.194;9.886;2023-05-10T06:25:27;5.00;5.00;5.00;;
53702;Laerm;39594;52.194;9.886;2023-05-10T06:27:53;5.00;5.00;5.00;;
53702;Laerm;39594;52.194;9.886;2023-05-10T06:30:22;5.00;5.00;5.00;;
53702;Laerm;39594;52.194;9.886;2023-05-10T06:32:52;5.00;5.00;5.00;;
53702;Laerm;39594;52.194;9.886;2023-05-10T06:35:17;5.00;5.00;5.00;;
53702;Laerm;39594;52.194;9.886;2023-05-10T06:37:42;5.00;5.00;5.00;;
53702;Laerm;39594;52.194;9.886;2023-05-10T06:40:07;5.00;5.00;5.00;;
53702;Laerm;39594;52.194;9.886;2023-05-10T06:42:34;5.00;5.00;5.00;;
53702;Laerm;39594;52.194;9.886;2023-05-10T06:44:59;5.00;5.00;5.00;;
53702;Laerm;39594;52.194;9.886;2023-05-10T06:47:24;5.00;5.00;5.00;;
53702;Laerm;39594;52.194;9.886;2023-05-10T06:49:49;5.00;5.00;5.00;;
53702;Laerm;39594;52.194;9.886;2023-05-10T06:52:15;5.00;5.00;5.00;;
53702;Laerm;39594;52.194;9.886;2023-05-10T06:54:40;5.00;5.00;5.00;;
53702;Laerm;39594;52.194;9.886;2023-05-10T06:57:05;5.00;5.00;5.00;;
53702;Laerm;39594;52.194;9.886;2023-05-10T06:59:31;5.00;5.00;5.00;;
53702;Laerm;39594;52.194;9.886;2023-05-10T07:01:56;5.00;5.00;5.00;;
53702;Laerm;39594;52.194;9.886;2023-05-10T07:04:21;5.00;5.00;5.00;;
53702;Laerm;39594;52.194;9.886;2023-05-10T07:06:47;5.00;5.00;5.00;;
53702;Laerm;39594;52.194;9.886;2023-05-10T07:09:12;5.00;5.00;5.00;;
53702;Laerm;39594;52.194;9.886;2023-05-10T07:11:38;5.00;5.00;5.00;;
53702;Laerm;39594;52.194;9.886;2023-05-10T07:14:03;5.00;5.00;5.00;;
53702;Laerm;39594;52.194;9.886;2023-05-10T07:16:28;5.00;5.00;5.00;;
53702;Laerm;39594;52.194;9.886;2023-05-10T07:18:54;5.00;5.00;5.00;;
53702;Laerm;39594;52.194;9.886;2023-05-10T07:21:19;5.00;5.00;5.00;;
53702;Laerm;39594;52.194;9.886;2023-05-10T07:23:44;5.00;5.00;5.00;;
53702;Laerm;39594;52.194;9.886;2023-05-10T07:26:09;5.00;5.00;5.00;;
53702;Laerm;39594;52.194;9.886;2023-05-10T07:28:35;5.00;5.00;5.00;;
53702;Laerm;39594;52.194;9.886;2023-05-10T07:31:02;5.00;5.00;5.00;;
53702;Laerm;39594;52.194;9.886;2023-05-10T07:33:27;5.00;5.00;5.00;;
53702;Laerm;39594;52.194;9.886;2023-05-10T07:35:52;5.00;5.00;5.00;;
53702;Laerm;39594;52.194;9.886;2023-05-10T07:38:18;5.00;5.00;5.00;;
53702;Laerm;39594;52.194;9.886;2023-05-10T07:40:43;5.00;5.00;5.00;;
53702;Laerm;39594;52.194;9.886;2023-05-10T07:43:08;5.00;5.00;5.00;;
53702;Laerm;39594;52.194;9.886;2023-05-10T07:45:33;5.00;5.00;5.00;;
53702;Laerm;39594;52.194;9.886;2023-05-10T07:47:59;5.00;5.00;5.00;;
53702;Laerm;39594;52.194;9.886;2023-05-10T07:50:24;5.00;5.00;5.00;;
53702;Laerm;39594;52.194;9.886;2023-05-10T07:52:49;5.00;5.00;5.00;;
53702;Laerm;39594;52.194;9.886;2023-05-10T07:55:14;5.00;5.00;5.00;;
53702;Laerm;39594;52.194;9.886;2023-05-10T07:57:41;5.00;5.00;5.00;;
53702;Laerm;39594;52.194;9.886;2023-05-10T08:00:06;5.00;5.00;5.00;;
53702;Laerm;39594;52.194;9.886;2023-05-10T08:02:32;5.00;5.00;5.00;;
53702;Laerm;39594;52.194;9.886;2023-05-10T08:04:58;5.00;5.00;5.00;;
53702;Laerm;39594;52.194;9.886;2023-05-10T08:07:24;5.00;5.00;5.00;;
53702;Laerm;39594;52.194;9.886;2023-05-10T08:09:49;5.00;5.00;5.00;;
53702;Laerm;39594;52.194;9.886;2023-05-10T08:12:14;5.00;5.00;5.00;;
53702;Laerm;39594;52.194;9.886;2023-05-10T08:14:39;5.00;5.00;5.00;;
53702;Laerm;39594;52.194;9.886;2023-05-10T08:17:05;5.00;5.00;5.00;;
53702;Laerm;39594;52.194;9.886;2023-05-10T08:19:30;5.00;5.00;5.00;;
53702;Laerm;39594;52.194;9.886;2023-05-10T08:21:55;5.00;5.00;5.00;;
53702;Laerm;39594;52.194;9.886;2023-05-10T08:24:24;5.00;5.00;5.00;;
53702;Laerm;39594;52.194;9.886;2023-05-10T08:26:49;5.00;5.00;5.00;;
53702;Laerm;39594;52.194;9.886;2023-05-10T08:29:14;5.00;5.00;5.00;;
53702;Laerm;39594;52.194;9.886;2023-05-10T08:31:40;5.00;5.00;5.00;;
53702;Laerm;39594;52.194;9.886;2023-05-10T08:34:05;5.00;5.00;5.00;;
53702;Laerm;39594;52.194;9.886;2023-05-10T08:36:30;5.00;5.00;5.00;;
53702;Laerm;39594;52.194;9.886;2023-05-10T08:38:57;5.00;5.00;5.00;;
53702;Laerm;39594;52.194;9.886;2023-05-10T08:41:23;5.00;5.00;5.00;;
53702;Laerm;39594;52.194;9.886;2023-05-10T08:43:52;5.00;5.00;5.00;;
53702;Laerm;39594;52.194;9.886;2023-05-10T08:46:18;5.00;5.00;5.00;;
53702;Laerm;39594;52.194;9.886;2023-05-10T08:48:47;5.00;5.00;5.00;;
53702;Laerm;39594;52.194;9.886;2023-05-10T08:51:22;5.00;5.00;5.00;;
53702;Laerm;39594;52.194;9.886;2023-05-10T08:53:51;5.00;5.00;5.00;;
53702;Laerm;39594;52.194;9.886;2023-05-10T08:56:17;5.00;5.00;5.00;;
53702;Laerm;39594;52.194;9.886;2023-05-10T08:58:43;5.00;5.00;5.00;;
53702;Laerm;39594;52.194;9.886;2023-05-10T09:01:08;5.00;5.00;5.00;;
53702;Laerm;39594;52.194;9.886;2023-05-10T09:03:33;5.00;5.00;5.00;;
53702;Laerm;39594;52.194;9.886;2023-05-10T09:06:00;5.00;5.00;5.00;;
53702;Laerm;39594;52.194;9.886;2023-05-10T09:08:25;5.00;5.00;5.00;;
53702;Laerm;39594;52.194;9.886;2023-05-10T09:10:51;5.00;5.00;5.00;;
53702;Laerm;39594;52.194;9.886;2023-05-10T09:13:16;5.00;5.00;5.00;;
53702;Laerm;39594;52.194;9.886;2023-05-10T09:15:42;5.00;5.00;5.00;;
53702;Laerm;39594;52.194;9.886;2023-05-10T09:18:08;5.00;5.00;5.00;;
53702;Laerm;39594;52.194;9.886;2023-05-10T09:20:33;5.00;5.00;5.00;;
53702;Laerm;39594;52.194;9.886;2023-05-10T09:22:58;5.00;5.00;5.00;;
53702;Laerm;39594;52.194;9.886;2023-05-10T09:25:23;5.00;5.00;5.00;;
53702;Laerm;39594;52.194;9.886;2023-05-10T09:27:49;5.00;5.00;5.00;;
53702;Laerm;39594;52.194;9.886;2023-05-10T09:30:18;5.00;5.00;5.00;;
53702;Laerm;39594;52.194;9.886;2023-05-10T09:32:47;5.00;5.00;5.00;;
53702;Laerm;39594;52.194;9.886;2023-05-10T09:35:14;5.00;5.00;5.00;;
53702;Laerm;39594;52.194;9.886;2023-05-10T09:37:39;5.00;5.00;5.00;;
53702;Laerm;39594;52.194;9.886;2023-05-10T09:40:11;5.00;5.00;5.00;;
53702;Laerm;39594;52.194;9.886;2023-05-10T09:42:36;5.00;5.00;5.00;;
53702;Laerm;39594;52.194;9.886;2023-05-10T09:45:02;5.00;5.00;5.00;;
53702;Laerm;39594;52.194;9.886;2023-05-10T09:50:19;5.00;5.00;5.00;;
53702;Laerm;39594;52.194;9.886;2023-05-10T09:52:52;5.00;5.00;5.00;;
53702;Laerm;39594;52.194;9.886;2023-05-10T09:55:21;5.00;5.00;5.00;;
53702;Laerm;39594;52.194;9.886;2023-05-10T09:57:47;5.00;5.00;5.00;;
53702;Laerm;39594;52.194;9.886;2023-05-10T10:00:17;5.00;5.00;5.00;;
53702;Laerm;39594;52.194;9.886;2023-05-10T10:02:42;5.00;5.00;5.00;;
53702;Laerm;39594;52.194;9.886;2023-05-10T10:05:08;5.00;5.00;5.00;;
53702;Laerm;39594;52.194;9.886;2023-05-10T10:07:33;5.00;5.00;5.00;;
53702;Laerm;39594;52.194;9.886;2023-05-10T10:10:01;5.00;5.00;5.00;;
53702;Laerm;39594;52.194;9.886;2023-05-10T10:12:27;5.00;5.00;5.00;;
53702;Laerm;39594;52.194;9.886;2023-05-10T10:14:53;5.00;5.00;5.00;;
53702;Laerm;39594;52.194;9.886;2023-05-10T10:17:21;5.00;5.00;5.00;;
53702;Laerm;39594;52.194;9.886;2023-05-10T10:19:46;5.00;5.00;5.00;;
53702;Laerm;39594;52.194;9.886;2023-05-10T10:22:13;5.00;5.00;5.00;;
53702;Laerm;39594;52.194;9.886;2023-05-10T10:24:38;5.00;5.00;5.00;;
53702;Laerm;39594;52.194;9.886;2023-05-10T10:27:14;5.00;5.00;5.00;;
53702;Laerm;39594;52.194;9.886;2023-05-10T10:29:47;5.00;5.00;5.00;;
53702;Laerm;39594;52.194;9.886;2023-05-10T10:32:33;5.00;5.00;5.00;;
53702;Laerm;39594;52.194;9.886;2023-05-10T10:35:03;5.00;5.00;5.00;;
53702;Laerm;39594;52.194;9.886;2023-05-10T10:37:43;5.00;5.00;5.00;;
53702;Laerm;39594;52.194;9.886;2023-05-10T10:40:24;5.00;5.00;5.00;;
53702;Laerm;39594;52.194;9.886;2023-05-10T10:42:50;5.00;5.00;5.00;;
53702;Laerm;39594;52.194;9.886;2023-05-10T10:45:16;5.00;5.00;5.00;;
53702;Laerm;39594;52.194;9.886;2023-05-10T10:47:41;5.00;5.00;5.00;;
53702;Laerm;39594;52.194;9.886;2023-05-10T10:50:08;5.00;5.00;5.00;;
53702;Laerm;39594;52.194;9.886;2023-05-10T10:52:35;5.00;5.00;5.00;;
53702;Laerm;39594;52.194;9.886;2023-05-10T10:57:26;5.00;5.00;5.00;;
53702;Laerm;39594;52.194;9.886;2023-05-10T10:59:54;5.00;5.00;5.00;;
53702;Laerm;39594;52.194;9.886;2023-05-10T11:02:43;5.00;5.00;5.00;;
53702;Laerm;39594;52.194;9.886;2023-05-10T11:07:55;5.00;5.00;5.00;;
53702;Laerm;39594;52.194;9.886;2023-05-10T11:10:21;5.00;5.00;5.00;;
53702;Laerm;39594;52.194;9.886;2023-05-10T11:13:05;5.00;5.00;5.00;;
53702;Laerm;39594;52.194;9.886;2023-05-10T11:15:31;5.00;5.00;5.00;;
53702;Laerm;39594;52.194;9.886;2023-05-10T11:17:57;5.00;5.00;5.00;;
53702;Laerm;39594;52.194;9.886;2023-05-10T11:20:22;5.00;5.00;5.00;;
53702;Laerm;39594;52.194;9.886;2023-05-10T11:22:52;5.00;5.00;5.00;;
53702;Laerm;39594;52.194;9.886;2023-05-10T11:25:19;5.00;5.00;5.00;;
53702;Laerm;39594;52.194;9.886;2023-05-10T11:27:47;5.00;5.00;5.00;;
53702;Laerm;39594;52.194;9.886;2023-05-10T11:30:13;5.00;5.00;5.00;;
53702;Laerm;39594;52.194;9.886;2023-05-10T11:32:38;5.00;5.00;5.00;;
53702;Laerm;39594;52.194;9.886;2023-05-10T11:35:10;5.00;5.00;5.00;;
53702;Laerm;39594;52.194;9.886;2023-05-10T11:37:36;5.00;5.00;5.00;;
53702;Laerm;39594;52.194;9.886;2023-05-10T11:40:11;5.00;5.00;5.00;;
53702;Laerm;39594;52.194;9.886;2023-05-10T11:42:39;5.00;5.00;5.00;;
53702;Laerm;39594;52.194;9.886;2023-05-10T11:45:05;5.00;5.00;5.00;;
53702;Laerm;39594;52.194;9.886;2023-05-10T11:47:30;5.00;5.00;5.00;;
53702;Laerm;39594;52.194;9.886;2023-05-10T11:49:55;5.00;5.00;5.00;;
53702;Laerm;39594;52.194;9.886;2023-05-10T11:52:21;5.00;5.00;5.00;;
53702;Laerm;39594;52.194;9.886;2023-05-10T11:54:50;5.00;5.00;5.00;;
53702;Laerm;39594;52.194;9.886;2023-05-10T11:57:17;5.00;5.00;5.00;;
53702;Laerm;39594;52.194;9.886;2023-05-10T11:59:42;5.00;5.00;5.00;;
53702;Laerm;39594;52.194;9.886;2023-05-10T12:02:08;5.00;5.00;5.00;;
53702;Laerm;39594;52.194;9.886;2023-05-10T12:04:33;5.00;5.00;5.00;;
53702;Laerm;39594;52.194;9.886;2023-05-10T12:06:58;5.00;5.00;5.00;;
53702;Laerm;39594;52.194;9.886;2023-05-10T12:09:23;5.00;5.00;5.00;;
53702;Laerm;39594;52.194;9.886;2023-05-10T12:11:48;5.00;5.00;5.00;;
53702;Laerm;39594;52.194;9.886;2023-05-10T12:14:14;5.00;5.00;5.00;;
53702;Laerm;39594;52.194;9.886;2023-05-10T12:16:40;5.00;5.00;5.00;;
53702;Laerm;39594;52.194;9.886;2023-05-10T12:19:08;5.00;5.00;5.00;;
53702;Laerm;39594;52.194;9.886;2023-05-10T12:21:33;5.00;5.00;5.00;;
53702;Laerm;39594;52.194;9.886;2023-05-10T12:23:59;5.00;5.00;5.00;;
53702;Laerm;39594;52.194;9.886;2023-05-10T12:26:27;5.00;5.00;5.00;;
53702;Laerm;39594;52.194;9.886;2023-05-10T12:28:53;5.00;5.00;5.00;;
53702;Laerm;39594;52.194;9.886;2023-05-10T12:31:18;5.00;5.00;5.00;;
53702;Laerm;39594;52.194;9.886;2023-05-10T12:33:44;5.00;5.00;5.00;;
53702;Laerm;39594;52.194;9.886;2023-05-10T12:36:22;5.00;5.00;5.00;;
53702;Laerm;39594;52.194;9.886;2023-05-10T12:38:48;5.00;5.00;5.00;;
53702;Laerm;39594;52.194;9.886;2023-05-10T12:41:17;5.00;5.00;5.00;;
53702;Laerm;39594;52.194;9.886;2023-05-10T12:43:43;5.00;5.00;5.00;;
53702;Laerm;39594;52.194;9.886;2023-05-10T12:46:12;5.00;5.00;5.00;;
53702;Laerm;39594;52.194;9.886;2023-05-10T12:48:38;5.00;5.00;5.00;;
53702;Laerm;39594;52.194;9.886;2023-05-10T12:51:04;5.00;5.00;5.00;;
53702;Laerm;39594;52.194;9.886;2023-05-10T12:53:30;5.00;5.00;5.00;;
53702;Laerm;39594;52.194;9.886;2023-05-10T12:55:55;5.00;5.00;5.00;;
53702;Laerm;39594;52.194;9.886;2023-05-10T12:58:20;5.00;5.00;5.00;;
53702;Laerm;39594;52.194;9.886;2023-05-10T13:00:46;5.00;5.00;5.00;;
53702;Laerm;39594;52.194;9.886;2023-05-10T13:03:11;5.00;5.00;5.00;;
53702;Laerm;39594;52.194;9.886;2023-05-10T13:05:36;5.00;5.00;5.00;;
53702;Laerm;39594;52.194;9.886;2023-05-10T13:08:01;5.00;5.00;5.00;;
53702;Laerm;39594;52.194;9.886;2023-05-10T13:10:28;5.00;5.00;5.00;;
53702;Laerm;39594;52.194;9.886;2023-05-10T13:12:54;5.00;5.00;5.00;;
53702;Laerm;39594;52.194;9.886;2023-05-10T13:15:19;5.00;5.00;5.00;;
53702;Laerm;39594;52.194;9.886;2023-05-10T13:17:44;5.00;5.00;5.00;;
53702;Laerm;39594;52.194;9.886;2023-05-10T13:20:10;5.00;5.00;5.00;;
53702;Laerm;39594;52.194;9.886;2023-05-10T13:22:35;5.00;5.00;5.00;;
53702;Laerm;39594;52.194;9.886;2023-05-10T13:25:01;5.00;5.00;5.00;;
53702;Laerm;39594;52.194;9.886;2023-05-10T13:27:26;5.00;5.00;5.00;;
53702;Laerm;39594;52.194;9.886;2023-05-10T13:29:51;5.00;5.00;5.00;;
53702;Laerm;39594;52.194;9.886;2023-05-10T13:32:16;5.00;5.00;5.00;;
53702;Laerm;39594;52.194;9.886;2023-05-10T13:34:42;5.00;5.00;5.00;;
53702;Laerm;39594;52.194;9.886;2023-05-10T13:37:07;5.00;5.00;5.00;;
53702;Laerm;39594;52.194;9.886;2023-05-10T13:39:35;5.00;5.00;5.00;;
53702;Laerm;39594;52.194;9.886;2023-05-10T13:42:02;5.00;5.00;5.00;;
53702;Laerm;39594;52.194;9.886;2023-05-10T13:44:27;5.00;5.00;5.00;;
53702;Laerm;39594;52.194;9.886;2023-05-10T13:46:53;5.00;5.00;5.00;;
53702;Laerm;39594;52.194;9.886;2023-05-10T13:49:18;5.00;5.00;5.00;;
53702;Laerm;39594;52.194;9.886;2023-05-10T13:51:43;5.00;5.00;5.00;;
53702;Laerm;39594;52.194;9.886;2023-05-10T13:54:08;5.00;5.00;5.00;;
53702;Laerm;39594;52.194;9.886;2023-05-10T13:56:34;5.00;5.00;5.00;;
53702;Laerm;39594;52.194;9.886;2023-05-10T13:58:59;5.00;5.00;5.00;;
53702;Laerm;39594;52.194;9.886;2023-05-10T14:01:27;5.00;5.00;5.00;;
53702;Laerm;39594;52.194;9.886;2023-05-10T14:03:52;5.00;5.00;5.00;;
53702;Laerm;39594;52.194;9.886;2023-05-10T14:06:17;5.00;5.00;5.00;;
53702;Laerm;39594;52.194;9.886;2023-05-10T14:08:42;5.00;5.00;5.00;;
53702;Laerm;39594;52.194;9.886;2023-05-10T14:11:08;5.00;5.00;5.00;;
53702;Laerm;39594;52.194;9.886;2023-05-10T14:13:33;5.00;5.00;5.00;;
53702;Laerm;39594;52.194;9.886;2023-05-10T14:15:58;5.00;5.00;5.00;;
53702;Laerm;39594;52.194;9.886;2023-05-10T14:18:25;5.00;5.00;5.00;;
53702;Laerm;39594;52.194;9.886;2023-05-10T14:20:51;5.00;5.00;5.00;;
53702;Laerm;39594;52.194;9.886;2023-05-10T14:23:17;5.00;5.00;5.00;;
53702;Laerm;39594;52.194;9.886;2023-05-10T14:25:44;5.00;5.00;5.00;;
53702;Laerm;39594;52.194;9.886;2023-05-10T14:28:09;5.00;5.00;5.00;;
53702;Laerm;39594;52.194;9.886;2023-05-10T14:30:34;5.00;5.00;5.00;;